Johnston, Mississippi
Current Conditions -  °F | °C
As of 2:53 PM on Saturday 22 Nov 2014 (Local Time) from KMCB Reporting Station
Clear Clear  
Wind Chill: 68°   Ceiling: Unl
Heat Index: 68°   Visibility: 10mi
Dew Point: 54°   Wind: 7mph
Humidity: 61%   Direction: 140°SE
Pressure: 30.08"   Gusts: NA
Location:  31.2993°N, 90.4958°W
Report Text: KMCB 222053Z AUTO 14006KT 10SM CLR 20/12 A3008 RMK AO2 SLP183 T02000122 56024
Loading
Personal Weather Stations






























Interactive Weather Map New forecast layout! Learn more

10-Day Weather Forecast

Advertisements
Track Severe Weather on mobile